sensor_id;sensor_type;location;lat;lon;timestamp;P1;durP1;ratioP1;P2;durP2;ratioP2
76477;SDS011;65309;49.790;18.972;2022-11-21T00:08:45;11.60;;;7.50;;
76477;SDS011;65309;49.790;18.972;2022-11-21T00:13:49;11.00;;;6.85;;
76477;SDS011;65309;49.790;18.972;2022-11-21T00:18:50;9.13;;;6.50;;
76477;SDS011;65309;49.790;18.972;2022-11-21T00:23:52;10.77;;;7.35;;
76477;SDS011;65309;49.790;18.972;2022-11-21T00:28:56;10.15;;;5.60;;
76477;SDS011;65309;49.790;18.972;2022-11-21T00:33:58;12.20;;;6.53;;
76477;SDS011;65309;49.790;18.972;2022-11-21T00:39:00;11.05;;;6.25;;
76477;SDS011;65309;49.790;18.972;2022-11-21T00:44:03;9.38;;;5.75;;
76477;SDS011;65309;49.790;18.972;2022-11-21T00:49:05;17.20;;;7.25;;
76477;SDS011;65309;49.790;18.972;2022-11-21T00:54:07;9.50;;;5.85;;
76477;SDS011;65309;49.790;18.972;2022-11-21T00:59:11;7.93;;;5.05;;
76477;SDS011;65309;49.790;18.972;2022-11-21T01:04:13;18.38;;;10.70;;
76477;SDS011;65309;49.790;18.972;2022-11-21T01:09:15;10.25;;;7.18;;
76477;SDS011;65309;49.790;18.972;2022-11-21T01:14:18;8.65;;;7.00;;
76477;SDS011;65309;49.790;18.972;2022-11-21T01:19:20;10.13;;;7.07;;
76477;SDS011;65309;49.790;18.972;2022-11-21T01:24:22;19.90;;;9.00;;
76477;SDS011;65309;49.790;18.972;2022-11-21T01:29:25;17.95;;;9.18;;
76477;SDS011;65309;49.790;18.972;2022-11-21T01:34:28;10.82;;;5.13;;
76477;SDS011;65309;49.790;18.972;2022-11-21T01:39:30;11.20;;;6.97;;
76477;SDS011;65309;49.790;18.972;2022-11-21T01:44:47;9.13;;;6.07;;
76477;SDS011;65309;49.790;18.972;2022-11-21T01:49:50;11.20;;;7.35;;
76477;SDS011;65309;49.790;18.972;2022-11-21T01:54:54;8.90;;;5.70;;
76477;SDS011;65309;49.790;18.972;2022-11-21T02:00:03;13.95;;;6.25;;
76477;SDS011;65309;49.790;18.972;2022-11-21T02:05:11;9.90;;;6.53;;
76477;SDS011;65309;49.790;18.972;2022-11-21T02:10:18;14.23;;;8.32;;
76477;SDS011;65309;49.790;18.972;2022-11-21T02:15:21;15.68;;;7.88;;
76477;SDS011;65309;49.790;18.972;2022-11-21T02:20:26;8.90;;;6.53;;
76477;SDS011;65309;49.790;18.972;2022-11-21T02:25:31;13.45;;;5.70;;
76477;SDS011;65309;49.790;18.972;2022-11-21T02:30:36;11.90;;;7.93;;
76477;SDS011;65309;49.790;18.972;2022-11-21T02:35:39;13.90;;;9.15;;
76477;SDS011;65309;49.790;18.972;2022-11-21T02:40:46;12.13;;;6.13;;
76477;SDS011;65309;49.790;18.972;2022-11-21T02:45:54;9.10;;;6.22;;
76477;SDS011;65309;49.790;18.972;2022-11-21T02:50:56;18.30;;;9.95;;
76477;SDS011;65309;49.790;18.972;2022-11-21T02:56:00;10.43;;;5.95;;
76477;SDS011;65309;49.790;18.972;2022-11-21T03:01:02;13.75;;;7.60;;
76477;SDS011;65309;49.790;18.972;2022-11-21T03:06:04;13.95;;;8.10;;
76477;SDS011;65309;49.790;18.972;2022-11-21T03:11:07;10.27;;;5.82;;
76477;SDS011;65309;49.790;18.972;2022-11-21T03:16:09;13.48;;;6.57;;
76477;SDS011;65309;49.790;18.972;2022-11-21T03:21:11;8.20;;;5.07;;
76477;SDS011;65309;49.790;18.972;2022-11-21T03:26:14;8.25;;;6.95;;
76477;SDS011;65309;49.790;18.972;2022-11-21T03:31:17;12.43;;;6.60;;
76477;SDS011;65309;49.790;18.972;2022-11-21T03:36:19;15.00;;;8.85;;
76477;SDS011;65309;49.790;18.972;2022-11-21T03:41:22;14.30;;;9.48;;
76477;SDS011;65309;49.790;18.972;2022-11-21T03:46:31;14.52;;;9.85;;
76477;SDS011;65309;49.790;18.972;2022-11-21T03:51:35;12.10;;;8.35;;
76477;SDS011;65309;49.790;18.972;2022-11-21T03:56:39;16.08;;;10.60;;
76477;SDS011;65309;49.790;18.972;2022-11-21T04:01:41;13.48;;;8.27;;
76477;SDS011;65309;49.790;18.972;2022-11-21T04:06:43;7.50;;;3.63;;
76477;SDS011;65309;49.790;18.972;2022-11-21T04:11:47;9.57;;;6.32;;
76477;SDS011;65309;49.790;18.972;2022-11-21T04:16:49;5.30;;;3.58;;
76477;SDS011;65309;49.790;18.972;2022-11-21T04:21:51;6.63;;;4.65;;
76477;SDS011;65309;49.790;18.972;2022-11-21T04:26:54;5.13;;;3.70;;
76477;SDS011;65309;49.790;18.972;2022-11-21T04:31:56;8.30;;;5.43;;
76477;SDS011;65309;49.790;18.972;2022-11-21T04:36:58;6.57;;;4.05;;
76477;SDS011;65309;49.790;18.972;2022-11-21T04:42:01;5.03;;;3.20;;
76477;SDS011;65309;49.790;18.972;2022-11-21T04:47:03;5.03;;;3.08;;
76477;SDS011;65309;49.790;18.972;2022-11-21T04:52:06;4.43;;;2.78;;
76477;SDS011;65309;49.790;18.972;2022-11-21T04:57:09;7.88;;;4.20;;
76477;SDS011;65309;49.790;18.972;2022-11-21T05:02:11;6.55;;;2.20;;
76477;SDS011;65309;49.790;18.972;2022-11-21T05:07:13;4.38;;;2.28;;
76477;SDS011;65309;49.790;18.972;2022-11-21T05:12:17;4.38;;;2.80;;
76477;SDS011;65309;49.790;18.972;2022-11-21T05:17:37;3.20;;;2.28;;
76477;SDS011;65309;49.790;18.972;2022-11-21T05:22:39;4.75;;;2.95;;
76477;SDS011;65309;49.790;18.972;2022-11-21T05:27:43;4.28;;;2.95;;
76477;SDS011;65309;49.790;18.972;2022-11-21T05:32:45;4.88;;;4.00;;
76477;SDS011;65309;49.790;18.972;2022-11-21T05:37:47;5.82;;;2.55;;
76477;SDS011;65309;49.790;18.972;2022-11-21T05:42:50;4.28;;;2.63;;
76477;SDS011;65309;49.790;18.972;2022-11-21T05:48:10;3.83;;;2.28;;
76477;SDS011;65309;49.790;18.972;2022-11-21T05:53:12;5.22;;;3.20;;
76477;SDS011;65309;49.790;18.972;2022-11-21T05:58:16;3.22;;;2.53;;
76477;SDS011;65309;49.790;18.972;2022-11-21T06:03:18;5.15;;;3.15;;
76477;SDS011;65309;49.790;18.972;2022-11-21T06:08:29;5.60;;;3.25;;
76477;SDS011;65309;49.790;18.972;2022-11-21T06:13:35;3.53;;;2.55;;
76477;SDS011;65309;49.790;18.972;2022-11-21T06:18:38;5.07;;;2.50;;
76477;SDS011;65309;49.790;18.972;2022-11-21T06:23:41;4.30;;;2.95;;
76477;SDS011;65309;49.790;18.972;2022-11-21T06:28:45;4.60;;;1.73;;
76477;SDS011;65309;49.790;18.972;2022-11-21T06:33:50;3.95;;;2.60;;
76477;SDS011;65309;49.790;18.972;2022-11-21T06:38:53;5.32;;;3.05;;
76477;SDS011;65309;49.790;18.972;2022-11-21T06:43:58;4.35;;;3.20;;
76477;SDS011;65309;49.790;18.972;2022-11-21T06:49:01;5.43;;;2.92;;
76477;SDS011;65309;49.790;18.972;2022-11-21T06:54:03;3.55;;;3.03;;
76477;SDS011;65309;49.790;18.972;2022-11-21T06:59:07;3.45;;;2.10;;
76477;SDS011;65309;49.790;18.972;2022-11-21T07:04:09;7.13;;;2.42;;
76477;SDS011;65309;49.790;18.972;2022-11-21T07:09:11;3.30;;;2.40;;
76477;SDS011;65309;49.790;18.972;2022-11-21T07:14:34;1.27;;;1.15;;
76477;SDS011;65309;49.790;18.972;2022-11-21T07:19:36;2.40;;;1.67;;
76477;SDS011;65309;49.790;18.972;2022-11-21T07:24:41;3.17;;;1.88;;
76477;SDS011;65309;49.790;18.972;2022-11-21T07:29:45;3.15;;;2.13;;
76477;SDS011;65309;49.790;18.972;2022-11-21T07:34:46;3.75;;;2.25;;
76477;SDS011;65309;49.790;18.972;2022-11-21T07:39:48;4.20;;;2.08;;
76477;SDS011;65309;49.790;18.972;2022-11-21T07:44:52;4.07;;;2.25;;
76477;SDS011;65309;49.790;18.972;2022-11-21T07:49:54;4.15;;;2.05;;
76477;SDS011;65309;49.790;18.972;2022-11-21T07:54:56;2.83;;;1.92;;
76477;SDS011;65309;49.790;18.972;2022-11-21T07:59:59;3.42;;;2.08;;
76477;SDS011;65309;49.790;18.972;2022-11-21T08:05:01;2.72;;;1.73;;
76477;SDS011;65309;49.790;18.972;2022-11-21T08:10:03;3.58;;;2.55;;
76477;SDS011;65309;49.790;18.972;2022-11-21T08:15:08;3.10;;;2.42;;
76477;SDS011;65309;49.790;18.972;2022-11-21T08:20:10;3.83;;;2.50;;
76477;SDS011;65309;49.790;18.972;2022-11-21T08:25:12;3.45;;;2.60;;
76477;SDS011;65309;49.790;18.972;2022-11-21T08:30:16;4.07;;;2.60;;
76477;SDS011;65309;49.790;18.972;2022-11-21T08:35:18;4.38;;;2.80;;
76477;SDS011;65309;49.790;18.972;2022-11-21T08:40:20;7.30;;;2.85;;
76477;SDS011;65309;49.790;18.972;2022-11-21T08:45:23;4.50;;;2.75;;
76477;SDS011;65309;49.790;18.972;2022-11-21T08:50:26;4.50;;;2.38;;
76477;SDS011;65309;49.790;18.972;2022-11-21T08:55:28;4.45;;;2.70;;
76477;SDS011;65309;49.790;18.972;2022-11-21T09:00:32;4.88;;;3.03;;
76477;SDS011;65309;49.790;18.972;2022-11-21T09:05:35;5.60;;;3.28;;
76477;SDS011;65309;49.790;18.972;2022-11-21T09:10:37;5.18;;;2.83;;
76477;SDS011;65309;49.790;18.972;2022-11-21T09:15:40;3.30;;;2.20;;
76477;SDS011;65309;49.790;18.972;2022-11-21T09:21:01;4.00;;;2.65;;
76477;SDS011;65309;49.790;18.972;2022-11-21T09:26:03;3.95;;;2.83;;
76477;SDS011;65309;49.790;18.972;2022-11-21T09:31:06;4.45;;;2.90;;
76477;SDS011;65309;49.790;18.972;2022-11-21T09:36:08;3.05;;;2.13;;
76477;SDS011;65309;49.790;18.972;2022-11-21T09:41:11;3.75;;;2.13;;
76477;SDS011;65309;49.790;18.972;2022-11-21T09:46:43;4.07;;;2.50;;
76477;SDS011;65309;49.790;18.972;2022-11-21T09:51:47;4.20;;;2.75;;
76477;SDS011;65309;49.790;18.972;2022-11-21T09:56:51;3.08;;;2.20;;
76477;SDS011;65309;49.790;18.972;2022-11-21T10:01:56;4.85;;;2.60;;
76477;SDS011;65309;49.790;18.972;2022-11-21T10:07:00;4.85;;;2.60;;
76477;SDS011;65309;49.790;18.972;2022-11-21T10:12:06;3.40;;;2.38;;
76477;SDS011;65309;49.790;18.972;2022-11-21T10:17:38;4.13;;;2.47;;
76477;SDS011;65309;49.790;18.972;2022-11-21T10:22:57;9.38;;;2.30;;
76477;SDS011;65309;49.790;18.972;2022-11-21T10:28:10;3.08;;;2.03;;
76477;SDS011;65309;49.790;18.972;2022-11-21T10:33:22;2.28;;;1.55;;
76477;SDS011;65309;49.790;18.972;2022-11-21T10:38:33;3.13;;;2.00;;
76477;SDS011;65309;49.790;18.972;2022-11-21T10:43:39;4.78;;;2.97;;
76477;SDS011;65309;49.790;18.972;2022-11-21T10:49:09;6.43;;;3.45;;
76477;SDS011;65309;49.790;18.972;2022-11-21T10:54:14;4.60;;;3.20;;
76477;SDS011;65309;49.790;18.972;2022-11-21T10:59:35;2.67;;;1.92;;
76477;SDS011;65309;49.790;18.972;2022-11-21T11:04:38;2.65;;;1.90;;
76477;SDS011;65309;49.790;18.972;2022-11-21T11:09:53;3.03;;;2.00;;
76477;SDS011;65309;49.790;18.972;2022-11-21T11:15:16;2.38;;;1.70;;
76477;SDS011;65309;49.790;18.972;2022-11-21T11:20:37;5.63;;;2.60;;
76477;SDS011;65309;49.790;18.972;2022-11-21T11:25:43;4.65;;;2.10;;
76477;SDS011;65309;49.790;18.972;2022-11-21T11:30:46;3.58;;;2.20;;
76477;SDS011;65309;49.790;18.972;2022-11-21T11:35:51;3.15;;;2.00;;
76477;SDS011;65309;49.790;18.972;2022-11-21T11:40:52;3.85;;;2.13;;
76477;SDS011;65309;49.790;18.972;2022-11-21T11:46:07;3.25;;;2.42;;
76477;SDS011;65309;49.790;18.972;2022-11-21T11:51:38;4.03;;;1.85;;
76477;SDS011;65309;49.790;18.972;2022-11-21T11:56:45;3.83;;;2.63;;
76477;SDS011;65309;49.790;18.972;2022-11-21T12:01:49;5.53;;;2.63;;
76477;SDS011;65309;49.790;18.972;2022-11-21T12:06:59;3.45;;;1.60;;
76477;SDS011;65309;49.790;18.972;2022-11-21T12:12:27;3.50;;;2.53;;
76477;SDS011;65309;49.790;18.972;2022-11-21T12:17:37;2.05;;;1.67;;
76477;SDS011;65309;49.790;18.972;2022-11-21T12:22:44;4.72;;;2.42;;
76477;SDS011;65309;49.790;18.972;2022-11-21T12:27:49;5.03;;;2.42;;
76477;SDS011;65309;49.790;18.972;2022-11-21T12:32:56;2.78;;;1.95;;
76477;SDS011;65309;49.790;18.972;2022-11-21T12:38:15;4.15;;;2.15;;
76477;SDS011;65309;49.790;18.972;2022-11-21T12:43:28;3.00;;;1.77;;
76477;SDS011;65309;49.790;18.972;2022-11-21T12:48:39;4.13;;;2.55;;
76477;SDS011;65309;49.790;18.972;2022-11-21T12:54:21;3.20;;;1.70;;
76477;SDS011;65309;49.790;18.972;2022-11-21T12:59:45;3.47;;;2.42;;
76477;SDS011;65309;49.790;18.972;2022-11-21T13:04:53;3.05;;;1.45;;
76477;SDS011;65309;49.790;18.972;2022-11-21T13:09:59;3.47;;;2.05;;
76477;SDS011;65309;49.790;18.972;2022-11-21T13:15:08;2.40;;;1.63;;
76477;SDS011;65309;49.790;18.972;2022-11-21T13:20:21;8.48;;;1.77;;
76477;SDS011;65309;49.790;18.972;2022-11-21T13:25:42;3.33;;;2.17;;
76477;SDS011;65309;49.790;18.972;2022-11-21T13:30:48;7.10;;;2.55;;
76477;SDS011;65309;49.790;18.972;2022-11-21T13:35:54;3.78;;;2.30;;
76477;SDS011;65309;49.790;18.972;2022-11-21T13:40:58;4.82;;;2.95;;
76477;SDS011;65309;49.790;18.972;2022-11-21T13:52:00;3.15;;;2.53;;
76477;SDS011;65309;49.790;18.972;2022-11-21T13:57:13;3.80;;;2.53;;
76477;SDS011;65309;49.790;18.972;2022-11-21T14:02:31;2.63;;;1.88;;
76477;SDS011;65309;49.790;18.972;2022-11-21T14:07:49;3.92;;;2.97;;
76477;SDS011;65309;49.790;18.972;2022-11-21T14:12:53;4.57;;;2.83;;
76477;SDS011;65309;49.790;18.972;2022-11-21T14:17:56;4.55;;;2.55;;
76477;SDS011;65309;49.790;18.972;2022-11-21T14:23:01;4.50;;;3.30;;
76477;SDS011;65309;49.790;18.972;2022-11-21T14:28:07;3.67;;;2.67;;
76477;SDS011;65309;49.790;18.972;2022-11-21T14:33:22;5.47;;;4.25;;
76477;SDS011;65309;49.790;18.972;2022-11-21T14:38:30;7.65;;;4.57;;
76477;SDS011;65309;49.790;18.972;2022-11-21T14:43:36;4.57;;;2.95;;
76477;SDS011;65309;49.790;18.972;2022-11-21T14:48:41;4.10;;;2.70;;
76477;SDS011;65309;49.790;18.972;2022-11-21T14:53:43;4.18;;;3.03;;
76477;SDS011;65309;49.790;18.972;2022-11-21T14:58:49;5.40;;;2.95;;
76477;SDS011;65309;49.790;18.972;2022-11-21T15:03:55;3.80;;;2.25;;
76477;SDS011;65309;49.790;18.972;2022-11-21T15:08:58;4.03;;;2.28;;
76477;SDS011;65309;49.790;18.972;2022-11-21T15:14:24;5.32;;;2.30;;
76477;SDS011;65309;49.790;18.972;2022-11-21T15:19:30;4.15;;;3.00;;
76477;SDS011;65309;49.790;18.972;2022-11-21T15:29:44;3.42;;;2.63;;
76477;SDS011;65309;49.790;18.972;2022-11-21T15:34:46;5.10;;;2.90;;
76477;SDS011;65309;49.790;18.972;2022-11-21T15:39:48;4.53;;;2.60;;
76477;SDS011;65309;49.790;18.972;2022-11-21T15:44:57;4.28;;;3.00;;
76477;SDS011;65309;49.790;18.972;2022-11-21T15:50:00;4.18;;;2.45;;
76477;SDS011;65309;49.790;18.972;2022-11-21T15:55:02;4.28;;;2.65;;
76477;SDS011;65309;49.790;18.972;2022-11-21T16:00:11;3.60;;;2.83;;
76477;SDS011;65309;49.790;18.972;2022-11-21T16:05:14;4.70;;;3.10;;
76477;SDS011;65309;49.790;18.972;2022-11-21T16:10:17;3.80;;;2.65;;
76477;SDS011;65309;49.790;18.972;2022-11-21T16:15:29;3.20;;;2.35;;
76477;SDS011;65309;49.790;18.972;2022-11-21T16:20:31;3.38;;;2.28;;
76477;SDS011;65309;49.790;18.972;2022-11-21T16:25:33;3.85;;;2.30;;
76477;SDS011;65309;49.790;18.972;2022-11-21T16:30:38;3.17;;;2.30;;
76477;SDS011;65309;49.790;18.972;2022-11-21T16:35:40;3.40;;;1.88;;
76477;SDS011;65309;49.790;18.972;2022-11-21T16:40:42;3.40;;;2.83;;
76477;SDS011;65309;49.790;18.972;2022-11-21T16:45:55;6.28;;;3.70;;
76477;SDS011;65309;49.790;18.972;2022-11-21T16:51:10;6.78;;;3.00;;
76477;SDS011;65309;49.790;18.972;2022-11-21T16:56:13;3.53;;;3.03;;
76477;SDS011;65309;49.790;18.972;2022-11-21T17:01:17;5.30;;;2.63;;
76477;SDS011;65309;49.790;18.972;2022-11-21T17:06:21;3.75;;;3.30;;
76477;SDS011;65309;49.790;18.972;2022-11-21T17:11:25;5.15;;;3.75;;
76477;SDS011;65309;49.790;18.972;2022-11-21T17:16:31;4.07;;;3.00;;
76477;SDS011;65309;49.790;18.972;2022-11-21T17:21:35;6.32;;;4.30;;
76477;SDS011;65309;49.790;18.972;2022-11-21T17:26:37;3.28;;;2.50;;
76477;SDS011;65309;49.790;18.972;2022-11-21T17:31:40;5.45;;;2.70;;
76477;SDS011;65309;49.790;18.972;2022-11-21T17:36:43;5.13;;;2.85;;
76477;SDS011;65309;49.790;18.972;2022-11-21T17:41:45;3.75;;;2.72;;
76477;SDS011;65309;49.790;18.972;2022-11-21T17:46:48;4.80;;;3.55;;
76477;SDS011;65309;49.790;18.972;2022-11-21T17:56:57;5.85;;;4.13;;
76477;SDS011;65309;49.790;18.972;2022-11-21T18:02:02;4.47;;;3.38;;
76477;SDS011;65309;49.790;18.972;2022-11-21T18:07:04;5.57;;;3.47;;
76477;SDS011;65309;49.790;18.972;2022-11-21T18:12:07;4.97;;;3.55;;
76477;SDS011;65309;49.790;18.972;2022-11-21T18:17:10;6.00;;;3.67;;
76477;SDS011;65309;49.790;18.972;2022-11-21T18:22:14;5.50;;;3.38;;
76477;SDS011;65309;49.790;18.972;2022-11-21T18:27:16;4.50;;;3.70;;
76477;SDS011;65309;49.790;18.972;2022-11-21T18:32:19;8.35;;;4.72;;
76477;SDS011;65309;49.790;18.972;2022-11-21T18:37:21;5.72;;;4.30;;
76477;SDS011;65309;49.790;18.972;2022-11-21T18:42:23;6.47;;;4.60;;
76477;SDS011;65309;49.790;18.972;2022-11-21T18:47:26;7.18;;;3.67;;
76477;SDS011;65309;49.790;18.972;2022-11-21T18:52:28;4.80;;;3.85;;
76477;SDS011;65309;49.790;18.972;2022-11-21T18:57:34;7.80;;;3.53;;
76477;SDS011;65309;49.790;18.972;2022-11-21T19:02:37;5.57;;;3.60;;
76477;SDS011;65309;49.790;18.972;2022-11-21T19:07:39;5.05;;;3.65;;
76477;SDS011;65309;49.790;18.972;2022-11-21T19:12:42;6.10;;;3.60;;
76477;SDS011;65309;49.790;18.972;2022-11-21T19:17:45;6.63;;;3.25;;
76477;SDS011;65309;49.790;18.972;2022-11-21T19:22:47;5.07;;;2.78;;
76477;SDS011;65309;49.790;18.972;2022-11-21T19:27:49;7.30;;;4.13;;
76477;SDS011;65309;49.790;18.972;2022-11-21T19:32:52;5.68;;;3.13;;
76477;SDS011;65309;49.790;18.972;2022-11-21T19:37:55;6.18;;;3.67;;
76477;SDS011;65309;49.790;18.972;2022-11-21T19:42:57;9.00;;;3.90;;
76477;SDS011;65309;49.790;18.972;2022-11-21T19:48:00;4.80;;;3.33;;
76477;SDS011;65309;49.790;18.972;2022-11-21T19:53:02;4.57;;;3.47;;
76477;SDS011;65309;49.790;18.972;2022-11-21T19:58:04;4.40;;;2.97;;
76477;SDS011;65309;49.790;18.972;2022-11-21T20:03:07;5.40;;;3.80;;
76477;SDS011;65309;49.790;18.972;2022-11-21T20:08:10;5.18;;;3.95;;
76477;SDS011;65309;49.790;18.972;2022-11-21T20:13:18;6.35;;;4.15;;
76477;SDS011;65309;49.790;18.972;2022-11-21T20:18:21;4.70;;;4.00;;
76477;SDS011;65309;49.790;18.972;2022-11-21T20:23:24;5.03;;;4.18;;
76477;SDS011;65309;49.790;18.972;2022-11-21T20:28:26;5.50;;;3.80;;
76477;SDS011;65309;49.790;18.972;2022-11-21T20:33:29;5.68;;;4.00;;
76477;SDS011;65309;49.790;18.972;2022-11-21T20:38:34;5.95;;;4.15;;
76477;SDS011;65309;49.790;18.972;2022-11-21T20:43:37;6.00;;;3.90;;
76477;SDS011;65309;49.790;18.972;2022-11-21T20:49:00;6.75;;;4.45;;
76477;SDS011;65309;49.790;18.972;2022-11-21T20:54:02;6.53;;;4.25;;
76477;SDS011;65309;49.790;18.972;2022-11-21T20:59:05;5.55;;;3.33;;
76477;SDS011;65309;49.790;18.972;2022-11-21T21:04:08;6.45;;;4.30;;
76477;SDS011;65309;49.790;18.972;2022-11-21T21:09:10;6.07;;;3.53;;
76477;SDS011;65309;49.790;18.972;2022-11-21T21:14:12;6.32;;;3.20;;
76477;SDS011;65309;49.790;18.972;2022-11-21T21:19:15;8.15;;;4.55;;
76477;SDS011;65309;49.790;18.972;2022-11-21T21:24:18;13.68;;;6.05;;
76477;SDS011;65309;49.790;18.972;2022-11-21T21:29:20;128.77;;;41.33;;
76477;SDS011;65309;49.790;18.972;2022-11-21T21:34:23;109.05;;;33.85;;
76477;SDS011;65309;49.790;18.972;2022-11-21T21:39:25;166.50;;;46.60;;
76477;SDS011;65309;49.790;18.972;2022-11-21T21:44:27;10.30;;;5.32;;
76477;SDS011;65309;49.790;18.972;2022-11-21T21:49:35;4.28;;;3.10;;
76477;SDS011;65309;49.790;18.972;2022-11-21T21:54:37;3.28;;;2.08;;
76477;SDS011;65309;49.790;18.972;2022-11-21T21:59:40;9.00;;;3.97;;
76477;SDS011;65309;49.790;18.972;2022-11-21T22:04:43;5.03;;;3.13;;
76477;SDS011;65309;49.790;18.972;2022-11-21T22:09:52;7.85;;;4.43;;
76477;SDS011;65309;49.790;18.972;2022-11-21T22:14:54;5.93;;;3.88;;
76477;SDS011;65309;49.790;18.972;2022-11-21T22:19:57;4.88;;;3.42;;
76477;SDS011;65309;49.790;18.972;2022-11-21T22:24:59;4.32;;;3.42;;
76477;SDS011;65309;49.790;18.972;2022-11-21T22:30:01;4.80;;;3.47;;
76477;SDS011;65309;49.790;18.972;2022-11-21T22:35:05;3.78;;;3.13;;
76477;SDS011;65309;49.790;18.972;2022-11-21T22:40:08;4.75;;;3.33;;
76477;SDS011;65309;49.790;18.972;2022-11-21T22:45:11;3.00;;;2.25;;
76477;SDS011;65309;49.790;18.972;2022-11-21T22:50:14;3.78;;;2.63;;
76477;SDS011;65309;49.790;18.972;2022-11-21T22:55:16;3.55;;;1.90;;
76477;SDS011;65309;49.790;18.972;2022-11-21T23:00:18;2.28;;;1.60;;
76477;SDS011;65309;49.790;18.972;2022-11-21T23:05:22;2.28;;;1.55;;
76477;SDS011;65309;49.790;18.972;2022-11-21T23:10:24;1.85;;;1.60;;
76477;SDS011;65309;49.790;18.972;2022-11-21T23:15:26;4.70;;;2.03;;
76477;SDS011;65309;49.790;18.972;2022-11-21T23:20:29;2.03;;;1.58;;
76477;SDS011;65309;49.790;18.972;2022-11-21T23:25:31;3.30;;;2.30;;
76477;SDS011;65309;49.790;18.972;2022-11-21T23:30:33;3.35;;;2.38;;
76477;SDS011;65309;49.790;18.972;2022-11-21T23:35:36;2.83;;;2.08;;
76477;SDS011;65309;49.790;18.972;2022-11-21T23:40:39;2.00;;;1.63;;
76477;SDS011;65309;49.790;18.972;2022-11-21T23:45:41;1.88;;;1.60;;
76477;SDS011;65309;49.790;18.972;2022-11-21T23:50:45;2.58;;;1.65;;
76477;SDS011;65309;49.790;18.972;2022-11-21T23:55:47;1.55;;;1.45;;
